createdAt,value
2019-01-08T00:02:32.694Z,100868.98
2019-01-08T00:07:36.782Z,100847.88
2019-01-08T00:12:40.864Z,100831.58
2019-01-08T00:17:44.986Z,100820.48
2019-01-08T00:22:51.848Z,100807.70
2019-01-08T00:27:56.232Z,100799.75
2019-01-08T00:33:00.368Z,100778.89
2019-01-08T00:38:04.376Z,100761.96
2019-01-08T00:43:08.470Z,100752.91
2019-01-08T00:48:13.392Z,100750.59
2019-01-08T00:53:17.524Z,100736.36
2019-01-08T00:58:21.558Z,100719.41
2019-01-08T01:03:25.596Z,100718.72
2019-01-08T01:08:29.654Z,100706.14
2019-01-08T01:13:33.740Z,100695.05
2019-01-08T01:18:40.213Z,100675.31
2019-01-08T01:23:44.331Z,100660.49
2019-01-08T01:28:48.346Z,100650.52
2019-01-08T01:33:52.519Z,100637.41
2019-01-08T01:38:56.663Z,100624.56
2019-01-08T01:44:00.743Z,100612.98
2019-01-08T01:49:05.081Z,100603.41
2019-01-08T01:54:09.137Z,100595.02
2019-01-08T01:59:13.215Z,100575.44
2019-01-08T02:04:17.233Z,100563.08
2019-01-08T02:09:22.513Z,100548.69
2019-01-08T02:14:31.810Z,100533.55
2019-01-08T02:19:35.897Z,100539.63
2019-01-08T02:24:39.900Z,100525.94
2019-01-08T02:29:44.037Z,100505.91
2019-01-08T02:34:48.091Z,100516.53
2019-01-08T02:39:52.597Z,100481.45
2019-01-08T02:44:56.666Z,100497.80
2019-01-08T02:50:00.733Z,100487.47
2019-01-08T02:55:04.812Z,100476.14
2019-01-08T03:00:08.960Z,100460.22
2019-01-08T03:05:13.050Z,100442.00
2019-01-08T03:10:17.373Z,100429.41
2019-01-08T03:15:21.794Z,100428.48
2019-01-08T03:20:25.790Z,100423.05
2019-01-08T03:25:29.831Z,100402.41
2019-01-08T03:30:33.876Z,100391.30
2019-01-08T03:35:37.891Z,100374.19
2019-01-08T03:40:41.926Z,100373.67
2019-01-08T03:45:45.960Z,100365.56
2019-01-08T03:50:50.001Z,100340.56
2019-01-08T03:55:54.032Z,100323.48
2019-01-08T04:00:58.148Z,100329.20
2019-01-08T04:06:02.602Z,100324.55
2019-01-08T04:11:06.727Z,100310.71
2019-01-08T04:16:10.810Z,100297.78
2019-01-08T04:21:14.891Z,100289.14
2019-01-08T04:26:19.301Z,100283.08
2019-01-08T04:31:23.814Z,100279.72
2019-01-08T04:36:27.857Z,100278.88
2019-01-08T04:41:31.938Z,100259.48
2019-01-08T04:46:36.069Z,100244.88
2019-01-08T04:51:40.488Z,100235.01
2019-01-08T04:56:44.585Z,100221.91
2019-01-08T05:01:48.662Z,100218.00
2019-01-08T05:06:52.734Z,100191.12
2019-01-08T05:11:56.830Z,100172.55
2019-01-08T05:17:00.862Z,100148.08
2019-01-08T05:22:04.934Z,100161.23
2019-01-08T05:27:09.021Z,100152.44
2019-01-08T05:32:13.043Z,100136.85
2019-01-08T05:37:18.492Z,100122.98
2019-01-08T05:42:22.576Z,100111.36
2019-01-08T05:47:26.687Z,100091.06
2019-01-08T05:52:30.735Z,100076.52
2019-01-08T05:57:34.795Z,100079.48
2019-01-08T06:02:38.862Z,100077.43
2019-01-08T06:07:42.949Z,100068.91
2019-01-08T06:12:47.042Z,100058.58
2019-01-08T06:17:51.348Z,100050.23
2019-01-08T06:22:55.719Z,100038.64
2019-01-08T06:28:01.190Z,100032.50
2019-01-08T06:33:06.046Z,100018.32
2019-01-08T06:38:10.086Z,100002.08
2019-01-08T06:43:14.135Z,99997.14
2019-01-08T06:48:18.222Z,99985.87
2019-01-08T06:53:22.317Z,99974.98
2019-01-08T06:58:26.309Z,99965.55
2019-01-08T07:03:30.377Z,99953.38
2019-01-08T07:08:34.433Z,99949.38
2019-01-08T07:13:38.470Z,99943.33
2019-01-08T07:18:42.806Z,99936.38
2019-01-08T07:23:46.855Z,99921.92
2019-01-08T07:28:51.029Z,99913.28
2019-01-08T07:33:55.160Z,99900.16
2019-01-08T07:38:59.535Z,99884.79
2019-01-08T07:44:03.596Z,99875.36
2019-01-08T07:49:07.922Z,99857.88
2019-01-08T07:54:12.300Z,99837.66
2019-01-08T07:59:16.623Z,99823.73
2019-01-08T08:04:20.696Z,99809.68
2019-01-08T08:09:24.910Z,99799.89
2019-01-08T08:14:28.941Z,99786.48
2019-01-08T08:19:33.011Z,99789.13
2019-01-08T08:24:37.088Z,99786.65
2019-01-08T08:29:41.385Z,99771.05
2019-01-08T08:34:45.453Z,99763.92
2019-01-08T08:39:49.479Z,99757.29
2019-01-08T08:44:53.762Z,99741.37
2019-01-08T08:49:58.111Z,99734.28
2019-01-08T08:55:02.374Z,99724.88
2019-01-08T09:00:08.321Z,99718.87
2019-01-08T09:05:12.365Z,99689.52
2019-01-08T09:10:16.400Z,99681.41
2019-01-08T09:15:20.452Z,99670.98
2019-01-08T09:20:24.503Z,99650.89
2019-01-08T09:25:28.869Z,99640.42
2019-01-08T09:30:32.930Z,99629.48
2019-01-08T09:35:36.982Z,99618.18
2019-01-08T09:40:41.026Z,99614.05
2019-01-08T09:45:45.018Z,99600.94
2019-01-08T09:50:49.159Z,99594.30
2019-01-08T09:55:53.206Z,99582.52
2019-01-08T10:00:57.247Z,99584.83
2019-01-08T10:06:01.343Z,99572.23
2019-01-08T10:11:07.297Z,99550.02
2019-01-08T10:16:11.434Z,99543.39
2019-01-08T10:21:15.424Z,99529.42
2019-01-08T10:26:19.434Z,99513.50
2019-01-08T10:31:32.128Z,99505.02
2019-01-08T10:36:29.254Z,99491.92
2019-01-08T10:41:33.311Z,99481.65
2019-01-08T10:46:37.791Z,99484.47
2019-01-08T10:51:41.819Z,99471.15
2019-01-08T10:56:46.213Z,99462.83
2019-01-08T11:01:50.241Z,99459.82
2019-01-08T11:06:55.413Z,99455.04
2019-01-08T11:11:59.490Z,99441.09
2019-01-08T11:17:03.495Z,99450.70
2019-01-08T11:22:07.554Z,99436.97
2019-01-08T11:27:11.674Z,99425.83
2019-01-08T11:32:15.708Z,99438.97
2019-01-08T11:37:19.765Z,99432.84
2019-01-08T11:42:23.866Z,99421.21
2019-01-08T11:47:27.901Z,99413.21
2019-01-08T11:52:32.372Z,99406.09
2019-01-08T11:57:36.385Z,99397.80
2019-01-08T12:02:47.594Z,99398.63
2019-01-08T12:07:46.151Z,99391.83
2019-01-08T12:12:50.211Z,99377.88
2019-01-08T12:17:54.437Z,99379.72
2019-01-08T12:23:00.188Z,99363.81
2019-01-08T12:28:04.480Z,99356.20
2019-01-08T12:33:08.574Z,99355.16
2019-01-08T12:38:12.701Z,99349.62
2019-01-08T12:43:16.746Z,99346.42
2019-01-08T12:48:21.018Z,99353.24
2019-01-08T12:53:25.564Z,99348.77
2019-01-08T12:58:29.711Z,99348.73
2019-01-08T13:03:33.925Z,99350.53
2019-01-08T13:08:38.051Z,99352.16
2019-01-08T13:13:42.153Z,99351.70
2019-01-08T13:18:46.258Z,99359.30
2019-01-08T13:23:50.609Z,99355.02
2019-01-08T13:28:54.950Z,99361.16
2019-01-08T13:33:59.837Z,99363.67
2019-01-08T13:39:06.432Z,99381.44
2019-01-08T13:44:10.721Z,99394.41
2019-01-08T13:49:14.785Z,99374.70
2019-01-08T13:54:18.903Z,99382.02
2019-01-08T13:59:22.923Z,99383.20
2019-01-08T14:04:27.016Z,99397.61
2019-01-08T14:09:31.097Z,99395.13
2019-01-08T14:14:35.135Z,99393.51
2019-01-08T14:19:39.214Z,99394.86
2019-01-08T14:24:44.303Z,99401.66
2019-01-08T14:29:48.401Z,99399.53
2019-01-08T14:34:52.451Z,99402.68
2019-01-08T14:39:56.682Z,99404.00
2019-01-08T14:45:00.886Z,99411.62
2019-01-08T14:50:05.242Z,99410.97
2019-01-08T14:55:09.290Z,99412.11
2019-01-08T15:00:13.448Z,99420.06
2019-01-08T15:05:17.878Z,99418.06
2019-01-08T15:10:21.911Z,99411.94
2019-01-08T15:15:25.954Z,99417.88
2019-01-08T15:20:30.003Z,99418.52
2019-01-08T15:25:34.124Z,99418.22
2019-01-08T15:30:38.744Z,99425.70
2019-01-08T15:35:42.773Z,99428.05
2019-01-08T15:40:46.811Z,99435.03
2019-01-08T15:45:50.879Z,99429.53
2019-01-08T15:50:55.030Z,99424.08
2019-01-08T15:55:59.445Z,99417.63
2019-01-08T16:01:03.472Z,99414.80
2019-01-08T16:06:07.513Z,99410.47
2019-01-08T16:11:11.593Z,99417.79
2019-01-08T16:16:15.646Z,99414.55
2019-01-08T16:21:19.710Z,99415.09
2019-01-08T16:26:25.650Z,99413.56
2019-01-08T16:31:29.836Z,99414.08
2019-01-08T16:36:33.913Z,99435.35
2019-01-08T16:41:38.107Z,99432.72
2019-01-08T16:46:42.201Z,99444.87
2019-01-08T16:51:46.328Z,99429.97
2019-01-08T16:56:50.373Z,99434.78
2019-01-08T17:01:54.725Z,99445.55
2019-01-08T17:06:58.955Z,99452.69
2019-01-08T17:12:03.047Z,99452.17
2019-01-08T17:17:07.352Z,99482.64
2019-01-08T17:22:11.335Z,99508.09
2019-01-08T17:27:15.802Z,99511.24
2019-01-08T17:32:19.870Z,99511.88
2019-01-08T17:37:23.937Z,99515.94
2019-01-08T17:42:27.959Z,99512.44
2019-01-08T17:47:32.023Z,99517.84
2019-01-08T17:52:36.443Z,99521.56
2019-01-08T17:57:40.442Z,99534.25
2019-01-08T18:02:51.422Z,99528.09
2019-01-08T18:07:55.524Z,99532.91
2019-01-08T18:13:00.541Z,99537.36
2019-01-08T18:18:05.906Z,99539.83
2019-01-08T18:23:10.287Z,99542.91
2019-01-08T18:28:17.770Z,99553.52
2019-01-08T18:33:22.680Z,99549.75
2019-01-08T18:38:27.688Z,99547.70
2019-01-08T18:43:32.892Z,99554.98
2019-01-08T18:48:38.119Z,99536.41
2019-01-08T18:53:42.562Z,99559.55
2019-01-08T18:58:47.854Z,99569.92
2019-01-08T19:03:59.800Z,99567.28
2019-01-08T19:09:36.389Z,99564.35
2019-01-08T19:14:41.596Z,99578.77
2019-01-08T19:19:46.787Z,99588.16
2019-01-08T19:24:51.538Z,99584.44
2019-01-08T19:29:55.578Z,99578.24
2019-01-08T19:34:59.694Z,99580.27
2019-01-08T19:40:03.975Z,99578.28
2019-01-08T19:45:08.636Z,99583.46
2019-01-08T19:50:12.893Z,99594.00
2019-01-08T19:55:18.577Z,99581.30
2019-01-08T20:00:25.241Z,99591.77
2019-01-08T20:05:31.540Z,99588.98
2019-01-08T20:10:35.781Z,99582.42
2019-01-08T20:15:42.036Z,99579.13
2019-01-08T20:20:46.814Z,99592.91
2019-01-08T20:25:51.464Z,99581.86
2019-01-08T20:30:56.203Z,99585.86
2019-01-08T20:36:00.650Z,99578.98
2019-01-08T20:41:05.318Z,99580.79
2019-01-08T20:46:10.464Z,99577.70
2019-01-08T20:51:14.565Z,99581.26
2019-01-08T20:56:18.655Z,99571.03
2019-01-08T21:01:22.879Z,99583.80
2019-01-08T21:06:26.937Z,99581.20
2019-01-08T21:11:31.028Z,99575.03
2019-01-08T21:16:35.057Z,99573.55
2019-01-08T21:21:39.127Z,99580.02
2019-01-08T21:26:43.260Z,99577.51
2019-01-08T21:31:47.291Z,99587.63
2019-01-08T21:36:51.334Z,99575.60
2019-01-08T21:41:55.404Z,99566.34
2019-01-08T21:46:59.471Z,99573.94
2019-01-08T21:52:03.720Z,99579.00
2019-01-08T21:57:07.777Z,99571.11
2019-01-08T22:02:11.977Z,99573.72
2019-01-08T22:07:16.114Z,99580.50
2019-01-08T22:12:20.141Z,99574.55
2019-01-08T22:17:24.241Z,99588.08
2019-01-08T22:22:28.258Z,99578.12
2019-01-08T22:27:32.565Z,99579.51
2019-01-08T22:32:36.669Z,99573.45
2019-01-08T22:37:44.874Z,99566.27
2019-01-08T22:42:49.202Z,99579.17
2019-01-08T22:47:53.719Z,99572.83
2019-01-08T22:52:58.616Z,99578.39
2019-01-08T22:58:02.678Z,99572.44
2019-01-08T23:03:06.746Z,99578.48
2019-01-08T23:08:10.880Z,99571.64
2019-01-08T23:13:15.468Z,99582.30
2019-01-08T23:18:19.522Z,99569.67
2019-01-08T23:23:23.944Z,99563.95
2019-01-08T23:28:28.191Z,99564.16
2019-01-08T23:33:32.348Z,99578.29
2019-01-08T23:38:36.693Z,99573.49
2019-01-08T23:43:40.726Z,99583.52
2019-01-08T23:48:44.812Z,99583.03
2019-01-08T23:53:50.144Z,99585.46
2019-01-08T23:58:54.240Z,99582.69
